Terminal Aerodrome Forecast
Issued by NWS

Home | Current Version | Previous Version | Text Only | Print | Product List | Glossary On
Versions: 1 2 3 4 5 6 7 8 9 10 11 12 13 14 15 16 17 18 19 20 21 22 23 24
000
FTUS44 KOUN 231720
TAFPNC
TAF
KPNC 231720Z 2318/2418 15010G20KT P6SM FEW250
     FM240000 13009KT P6SM BKN100 PROB30 2406/2412 TSRA BKN050CB=

USA.gov is the U.S. government's official web portal to all federal, state and local government web resources and services.